Latest Weather Observations for Gayndah

IDQ60801

Issued at 10:32 am EST Monday 5 December 2016 (issued every 30 minutes, with the page automatically refreshed every 10 minutes)

About weather observations | Map of weather stations | Latest weather observations for QLD | Other Formats
Station Details ID: 039066 Name: GAYNDAH AIRPORT Lat: -25.62 Lon: 151.62 Height: 110.9 m
Data from the previous 72 hours. | See also: Recent months at Gayndah
Date/Time
EST
Temp
°C
App
Temp
°C
Dew
Point
°C
Rel
Hum
%
Delta-T
°C
Wind Press
QNH
hPa
Press
MSL
hPa
Rain since
9am
mm
Dir  Spd
km/h
Gust
km/h
Spd
kts
Gust
kts
05/10:30am 32.1 32.2 18.3 44 9.0 NE 15 26 8 14 1014.9 1014.2 0.0
05/10:00am 30.9 32.3 18.6 48 8.0 NNE 9 17 5 9 1015.5 1014.8 0.0
05/09:30am 29.7 30.1 19.1 53 6.9 NNE 15 24 8 13 1015.8 1015.2 0.0
05/09:00am 27.9 28.9 18.6 57 6.0 NNE 11 26 6 14 1016.1 1015.5 0.0
05/08:30am 28.1 29.8 19.3 58 5.7 NNE 9 17 5 9 1016.4 1015.8 0.0
05/08:00am 27.5 28.3 19.0 59 5.5 NE 13 19 7 10 1016.4 1015.8 0.0
05/07:30am 26.3 27.8 19.7 67 4.3 NE 11 15 6 8 1016.4 1015.8 0.0
05/07:00am 25.4 27.6 20.4 74 3.3 NE 9 17 5 9 1016.3 1015.7 0.0
05/06:30am 24.4 26.3 20.5 79 2.6 NE 11 13 6 7 1016.2 1015.6 0.0
05/06:00am 23.4 26.3 20.7 85 1.8 ENE 6 9 3 5 1016.0 1015.4 0.0
05/05:30am 22.3 25.1 20.4 89 1.2 ENE 6 7 3 4 1015.8 1015.2 0.0
05/05:00am 22.2 24.8 20.1 88 1.4 ENE 6 7 3 4 1015.6 1014.9 0.0
05/04:30am 22.4 25.0 20.1 87 1.5 ENE 6 7 3 4 1015.2 1014.5 0.0
05/04:00am 22.6 25.1 20.3 87 1.5 NE 7 9 4 5 1014.7 1014.0 0.0
05/03:30am 22.9 25.0 20.2 85 1.8 ENE 9 11 5 6 1014.6 1013.9 0.0
05/03:00am 23.1 25.3 20.4 85 1.8 NE 9 13 5 7 1014.4 1013.7 0.0
05/02:30am 23.1 25.2 20.2 84 1.9 ENE 9 13 5 7 1014.5 1013.8 0.0
05/02:00am 23.4 24.9 20.5 84 1.9 ENE 13 17 7 9 1014.1 1013.5 0.0
05/01:30am 23.6 25.1 20.5 83 2.0 ENE 13 15 7 8 1014.4 1013.7 0.0
05/01:00am 23.8 24.9 20.5 82 2.2 ENE 15 20 8 11 1014.5 1013.8 0.0
05/12:30am 24.0 25.1 20.5 81 2.3 ENE 15 22 8 12 1014.8 1014.1 0.0
05/12:00am 24.2 25.0 20.7 81 2.3 NE 17 24 9 13 1015.0 1014.3 0.0
 
Date/Time
EST
Temp
°C
App
Temp
°C
Dew
Point
°C
Rel
Hum
%
Delta-T
°C
Wind Press
QNH
hPa
Press
MSL
hPa
Rain since
9am
mm
Dir  Spd
km/h
Gust
km/h
Spd
kts
Gust
kts
04/11:30pm 24.3 25.1 20.6 80 2.4 NE 17 22 9 12 1015.1 1014.4 0.0
04/11:00pm 24.4 24.8 20.7 80 2.4 ENE 19 26 10 14 1015.4 1014.7 0.0
04/10:30pm 24.5 25.0 20.8 80 2.4 NE 19 26 10 14 1014.6 1013.9 0.0
04/10:00pm 24.7 25.6 20.8 79 2.6 NE 17 22 9 12 1014.8 1014.1 0.0
04/09:30pm 25.0 25.5 20.9 78 2.7 NE 19 26 10 14 1014.9 1014.2 0.0
04/09:00pm 25.3 25.8 20.8 76 3.0 NE 19 24 10 13 1014.6 1013.9 0.0
04/08:30pm 25.7 25.6 20.7 74 3.3 NE 22 30 12 16 1013.9 1013.3 0.0
04/08:00pm 26.4 26.8 20.9 72 3.6 NE 20 32 11 17 1013.6 1013.0 0.0
04/07:30pm 27.0 27.1 21.1 70 3.9 NE 22 32 12 17 1013.1 1012.5 0.0
04/07:00pm 27.8 26.7 21.1 67 4.5 NE 28 39 15 21 1012.6 1012.0 0.0
04/06:30pm 28.7 28.5 21.2 64 5.0 NE 24 33 13 18 1012.3 1011.7 0.0
04/06:00pm 30.8 29.8 21.3 57 6.4 NE 28 41 15 22 1011.5 1010.9 0.0
04/05:30pm 32.7 32.1 20.6 49 8.1 NE 24 35 13 19 1011.0 1010.4 0.0
04/05:00pm 34.4 33.7 19.6 41 9.8 NE 22 32 12 17 1010.7 1010.1 0.0
04/04:30pm 34.9 34.1 18.5 38 10.8 NE 20 30 11 16 1010.6 1010.0 0.0
04/04:00pm 35.3 34.5 18.4 37 11.1 ENE 20 30 11 16 1010.8 1010.2 0.0
04/03:30pm 35.5 35.0 18.6 37 11.1 ENE 19 30 10 16 1011.0 1010.4 0.0
04/03:00pm 35.9 35.7 18.5 36 11.5 NE 17 32 9 17 1011.2 1010.6 0.0
04/02:30pm 35.6 35.1 18.7 37 11.1 ENE 19 32 10 17 1011.6 1011.0 0.0
04/02:00pm 35.2 36.1 18.3 36 11.1 NE 11 22 6 12 1012.1 1011.5 0.0
04/01:30pm 34.9 35.1 18.5 38 10.8 NE 15 24 8 13 1012.5 1011.9 0.0
04/01:00pm 33.4 33.9 17.5 38 10.2 NNE 11 20 6 11 1012.8 1012.2 0.0
04/12:30pm 33.9 34.4 18.4 40 10.1 NNE 13 22 7 12 1013.3 1012.7 0.0
04/12:00pm 32.6 33.3 18.8 44 9.0 NE 13 24 7 13 1013.8 1013.2 0.0
04/11:30am 32.4 32.8 18.2 42 9.2 N 13 24 7 13 1014.4 1013.7 0.0
04/11:00am 31.9 33.0 18.8 45 8.6 NE 11 19 6 10 1014.9 1014.2 0.0
04/10:30am 30.9 31.8 19.3 50 7.6 N 13 22 7 12 1015.1 1014.4 0.0
04/10:00am 29.4 30.2 18.2 51 7.2 NNE 11 19 6 10 1015.9 1015.3 0.0
04/09:30am 28.8 30.2 18.6 54 6.6 NE 9 15 5 8 1016.1 1015.5 0.0
04/09:00am 28.1 29.6 18.8 57 6.0 NE 9 22 5 12 1016.2 1015.6 1.6
04/08:30am 27.1 29.8 19.4 62 5.0 N 4 9 2 5 1016.2 1015.6 1.6
04/08:00am 26.1 28.1 19.2 65 4.4 NNE 7 11 4 6 1016.5 1015.9 1.6
04/07:30am 25.0 27.9 19.1 70 3.8 NE 2 9 1 5 1016.1 1015.5 1.6
04/07:00am 24.3 26.7 19.6 75 3.0 NE 6 9 3 5 1015.9 1015.3 1.6
04/06:30am 23.1 26.0 19.1 78 2.6 NE 2 4 1 2 1015.8 1015.2 1.6
04/06:00am 22.1 25.6 19.5 85 1.7 CALM 0 0 0 0 1015.5 1014.8 1.6
04/05:30am 20.8 24.2 19.3 91 1.0 CALM 0 0 0 0 1015.1 1014.4 1.6
04/05:00am 20.3 22.8 19.0 92 0.8 WSW 4 6 2 3 1015.0 1014.3 1.6
04/04:30am 20.4 23.2 18.9 91 0.9 ESE 2 2 1 1 1014.7 1014.0 1.6
04/04:00am 20.8 23.3 19.1 90 1.1 ESE 4 6 2 3 1014.6 1013.9 1.6
04/03:30am 20.8 23.5 18.6 87 1.4 ESE 2 6 1 3 1014.4 1013.7 1.6
04/03:00am 21.2 24.4 18.8 86 1.5 CALM 0 0 0 0 1014.3 1013.6 1.6
04/02:30am 21.5 23.6 18.9 85 1.6 ESE 6 7 3 4 1014.3 1013.6 1.6
04/02:00am 21.9 23.8 18.9 83 1.9 E 7 9 4 5 1014.5 1013.8 1.6
04/01:30am 22.3 23.0 18.9 81 2.2 ENE 13 17 7 9 1014.8 1014.1 1.6
04/01:00am 22.8 23.1 18.8 78 2.5 NE 15 20 8 11 1015.0 1014.3 1.6
04/12:30am 23.3 24.1 19.0 77 2.7 NNE 13 20 7 11 1015.5 1014.8 1.6
04/12:00am 23.4 23.5 19.1 77 2.7 NE 17 28 9 15 1016.1 1015.5 1.6
 
Date/Time
EST
Temp
°C
App
Temp
°C
Dew
Point
°C
Rel
Hum
%
Delta-T
°C
Wind Press
QNH
hPa
Press
MSL
hPa
Rain since
9am
mm
Dir  Spd
km/h
Gust
km/h
Spd
kts
Gust
kts
03/11:30pm 23.4 22.6 19.3 78 2.6 NE 22 39 12 21 1016.1 1015.5 1.6
03/11:00pm 23.2 22.1 19.4 79 2.4 NE 24 35 13 19 1016.6 1016.0 1.6
03/10:30pm 23.8 22.5 19.1 75 3.0 NNE 24 35 13 19 1017.2 1016.6 1.6
03/10:00pm 23.7 21.1 20.0 80 2.4 NE 33 48 18 26 1016.8 1016.2 1.6
03/09:39pm 23.9 19.8 20.8 83 2.0 ENE 43 57 23 31 1015.5 1014.8 1.6
03/09:30pm 24.6 21.8 21.1 81 2.3 E 37 56 20 30 1016.0 1015.4 1.4
03/09:22pm 26.6 25.5 20.2 68 4.2 E 26 46 14 25 1016.3 1015.7 0.0
03/09:00pm 27.1 26.7 20.2 66 4.5 ESE 22 32 12 17 1016.7 1016.1 0.0
03/08:30pm 26.2 26.2 20.1 69 4.0 ESE 20 33 11 18 1015.5 1014.8 0.0
03/08:19pm 26.3 26.5 20.2 69 4.0 E 19 28 10 15 1014.4 1013.7 0.0
03/08:00pm 26.6 26.7 20.4 69 4.1 NE 20 30 11 16 1012.3 1011.7 0.0
03/07:30pm 27.2 26.0 20.8 68 4.2 NE 28 39 15 21 1010.8 1010.2 0.0
03/07:00pm 27.9 27.9 21.0 66 4.6 NE 22 30 12 16 1011.0 1010.4 0.0
03/06:30pm 28.9 27.7 20.9 62 5.3 NE 28 41 15 22 1010.6 1010.0 0.0
03/06:00pm 30.1 29.3 20.9 57 6.2 NNE 26 37 14 20 1010.3 1009.7 0.0
03/05:30pm 31.6 30.4 20.8 52 7.2 NNE 28 39 15 21 1009.8 1009.2 0.0
03/05:00pm 33.6 32.2 20.4 46 8.9 NNE 28 39 15 21 1009.5 1008.9 0.0
03/04:30pm 35.7 34.1 19.2 38 10.9 NE 26 37 14 20 1009.4 1008.8 0.0
03/04:00pm 36.8 34.6 16.9 31 12.9 NE 24 35 13 19 1009.3 1008.7 0.0
03/03:30pm 36.9 34.7 17.0 31 12.9 NE 24 33 13 18 1009.7 1009.1 0.0
03/03:00pm 37.3 35.2 16.3 29 13.5 NE 22 35 12 19 1010.1 1009.5 0.0
03/02:30pm 37.2 35.9 18.2 32 12.5 ENE 22 30 12 16 1010.6 1010.0 0.0
03/02:00pm 37.5 36.9 17.5 30 13.1 ENE 17 24 9 13 1011.1 1010.5 0.0
03/01:30pm 36.8 35.7 17.4 32 12.6 NE 19 28 10 15 1011.7 1011.1 0.0
03/01:00pm 36.1 36.7 17.7 33 12.0 E 11 28 6 15 1012.0 1011.4 0.0
03/12:30pm 34.9 36.2 17.6 35 11.2 NNE 7 19 4 10 1012.6 1012.0 0.0
03/12:00pm 34.1 34.5 17.3 36 10.8 N 11 22 6 12 1013.2 1012.6 0.0
03/11:30am 34.0 35.1 18.1 39 10.3 NNE 9 20 5 11 1013.3 1012.7 0.0
03/11:00am 32.9 33.8 18.3 42 9.5 NE 11 19 6 10 1013.6 1013.0 0.0
03/10:30am 32.6 34.0 19.5 46 8.7 ENE 11 24 6 13 1014.1 1013.5 0.0
03/10:00am 31.6 33.0 19.6 49 7.9 NE 11 24 6 13 1014.5 1013.8 0.0
03/09:30am 30.5 32.8 19.5 51 7.2 NNE 6 17 3 9 1014.9 1014.2 0.0
03/09:00am 29.0 30.9 19.0 54 6.5 NNW 7 13 4 7 1015.1 1014.4 0.0
03/08:30am 28.3 30.6 19.5 59 5.7 NE 6 11 3 6 1015.3 1014.6 0.0
03/08:00am 28.0 30.7 20.3 63 5.1 ENE 6 9 3 5 1015.4 1014.7 0.0
03/07:30am 27.0 29.2 20.3 66 4.4 ENE 9 13 5 7 1015.3 1014.6 0.0
03/07:00am 25.8 27.6 20.4 72 3.5 NE 11 17 6 9 1015.0 1014.3 0.0
03/06:30am 25.4 28.4 21.3 78 2.7 ENE 7 11 4 6 1014.6 1013.9 0.0
03/06:00am 24.4 27.2 20.9 81 2.3 NNE 7 11 4 6 1014.0 1013.4 0.0
03/05:30am 23.9 26.8 21.0 84 1.9 NE 7 9 4 5 1013.8 1013.2 0.0
03/05:00am 24.1 26.9 20.8 82 2.2 ENE 7 9 4 5 1013.4 1012.8 0.0
03/04:30am 23.9 26.7 20.8 83 2.0 ENE 7 7 4 4 1013.0 1012.4 0.0
03/04:00am 23.7 26.6 21.0 85 1.8 E 7 9 4 5 1012.6 1012.0 0.0
03/03:30am 23.1 25.9 20.8 87 1.5 E 7 9 4 5 1012.2 1011.6 0.0
03/03:00am 22.7 25.6 20.6 88 1.4 E 6 7 3 4 1012.0 1011.4 0.0
03/02:30am 22.8 24.8 20.7 88 1.4 ENE 11 15 6 8 1011.5 1010.9 0.0
03/02:00am 23.0 25.0 20.7 87 1.5 ENE 11 15 6 8 1012.0 1011.4 0.0
03/01:30am 23.2 25.7 21.1 88 1.4 ENE 9 13 5 7 1012.2 1011.6 0.0
03/01:00am 23.3 26.3 21.2 88 1.4 ENE 7 13 4 7 1012.6 1012.0 0.0
03/12:30am 23.5 25.4 21.4 88 1.4 ENE 13 17 7 9 1012.6 1012.0 0.0
03/12:00am 23.6 25.9 21.3 87 1.5 ENE 11 17 6 9 1012.7 1012.1 0.0
 
Date/Time
EST
Temp
°C
App
Temp
°C
Dew
Point
°C
Rel
Hum
%
Delta-T
°C
Wind Press
QNH
hPa
Press
MSL
hPa
Rain since
9am
mm
Dir  Spd
km/h
Gust
km/h
Spd
kts
Gust
kts
02/11:30pm 23.8 26.1 21.3 86 1.7 ENE 11 15 6 8 1012.8 1012.2 0.0
02/11:00pm 24.1 25.9 21.2 84 1.9 ENE 13 19 7 10 1012.8 1012.2 0.0
02/10:30pm 24.5 26.3 21.2 82 2.2 ENE 13 17 7 9 1012.9 1012.3 0.0
02/10:00pm 25.1 26.8 21.0 78 2.7 NE 13 19 7 10 1012.5 1011.9 0.0
02/09:30pm 25.5 27.2 21.0 76 3.0 NE 13 20 7 11 1012.4 1011.8 0.0
02/09:00pm 26.2 27.9 21.0 73 3.4 ENE 13 19 7 10 1012.2 1011.6 0.0
02/08:30pm 26.8 28.5 20.9 70 3.9 ENE 13 19 7 10 1011.8 1011.2 0.0
02/08:00pm 27.7 28.6 21.5 69 4.2 NE 19 26 10 14 1011.5 1010.9 0.0
02/07:30pm 28.5 29.2 21.5 66 4.7 NE 20 28 11 15 1010.8 1010.2 0.0
02/07:00pm 29.7 31.0 21.6 61 5.5 NE 17 22 9 12 1010.3 1009.7 0.0
02/06:30pm 30.9 31.1 21.4 57 6.4 NE 22 30 12 16 1009.7 1009.1 0.0
02/06:00pm 32.3 32.4 21.2 52 7.5 NE 22 33 12 18 1009.2 1008.6 0.0
02/05:30pm 34.0 33.9 20.7 45 9.0 NE 22 32 12 17 1008.6 1008.0 0.0
02/05:00pm 35.2 33.8 19.6 40 10.4 NNE 26 33 14 18 1008.1 1007.5 0.0
02/04:30pm 38.4 35.9 14.2 23 15.1 NE 20 30 11 16 1007.6 1006.9 0.0
02/04:00pm 39.4 36.3 11.5 19 16.9 NE 19 28 10 15 1007.5 1006.8 0.0
02/03:30pm 39.3 36.6 12.9 20 16.3 NE 19 30 10 16 1007.7 1007.0 0.0
02/03:00pm 38.4 37.2 11.5 20 16.2 NNE 9 22 5 12 1007.9 1007.3 0.0
02/02:30pm 38.7 36.3 12.5 21 16.0 NNE 17 26 9 14 1008.3 1007.7 0.0
02/02:00pm 38.3 38.1 13.5 23 15.4 NE 7 17 4 9 1008.7 1008.1 0.0
02/01:30pm 37.4 36.6 14.0 24 14.5 NE 11 24 6 13 1009.0 1008.4 0.0
02/01:00pm 36.9 35.2 14.8 26 13.9 NE 17 26 9 14 1009.5 1008.9 0.0
02/12:30pm 36.6 36.0 15.7 29 13.3 NNE 13 20 7 11 1009.8 1009.2 0.0
02/12:00pm 35.5 34.8 16.3 32 12.3 ENE 15 22 8 12 1010.4 1009.8 0.0
02/11:30am 35.0 35.4 17.2 34 11.5 NNE 11 20 6 11 1010.8 1010.2 0.0
02/11:00am 33.7 34.2 17.4 37 10.5 N 11 24 6 13 1011.3 1010.7 0.0

Other Formats:

Comma delimited format used in spreadsheet applications
http://www.bom.gov.au/fwo/IDQ60801/IDQ60801.95543.axf

JavaScript Object Notation format (JSON) in row-major order
http://www.bom.gov.au/fwo/IDQ60801/IDQ60801.95543.json